Smith Valley, Nevada Weather observations

Data are for 10 minute period ending at time listed.
 Day   Time   Solar   Ave.   Ave.  Ave.  Vector  Max.   Baro.   Total    
  of    of     Rad.   Air    Rel.  Wind   Wind   Wind  Press.  Precip.   
Year   Day            Temp.  Hum.  Speed  Dir.   Gust                    
2026   (PST)  Kw/m2    F      %     mph   deg.    mph    mb.     in.     
-------------------------------------------------------------------------
 127    6:20   0.26   50.6    76    0.9   129     2.1   856.7    0.00 
 127    6:30   0.29   53.0    71    1.3    50     2.5   856.7    0.00 
 127    6:40   0.33   53.7    69    1.4    44     2.1   856.7    0.00 
 127    6:50   0.36   55.4    63    1.3    74     3.2   856.7    0.00 
 127    7:00   0.40   56.6    57    0.9   105     2.1   856.6    0.00 
 127    7:10   0.43   57.4    56    0.7   357     2.5   856.5    0.00 
 127    7:20   0.47   58.5    53    1.0   317     3.0   856.4    0.00 
 127    7:30   0.51   58.6    52    1.4   323     4.7   856.3    0.00 
 127    7:40   0.54   58.5    57    4.1     5     6.1   856.3    0.00 
 127    7:50   0.58   58.3    56    2.5   343     5.0   856.3    0.00 
 127    8:00   0.61   59.8    55    2.0   302     3.9   856.2    0.00 
 127    8:10   0.65   60.6    52    2.6   278     4.9   856.1    0.00 
 127    8:20   0.68   61.6    51    1.2   272     3.1   856.1    0.00 
 127    8:30   0.72   62.8    48    1.4   245     3.0   856.1    0.00 
 127    8:40   0.75   64.1    45    1.7   308     3.9   856.0    0.00 
 127    8:50   0.79   64.7    42    1.6   296     3.6   856.0    0.00 
 127    9:00   0.82   66.2    39    1.1   193     4.2   856.1    0.00 
 127    9:10   0.85   67.6    37    1.8    62     3.7   856.0    0.00 
 127    9:20   0.88   68.8    37    1.4    76     4.0   855.9    0.00 
 127    9:30   0.91   69.5    36    1.7   118     4.4   855.9    0.00 
 127    9:40   0.94   70.5    35    1.5   170     3.2   855.9    0.00 
 127    9:50   0.96   71.7    32    1.9    74     5.0   856.0    0.00 
 127   10:00   0.98   72.3    31    2.9    76     6.4   855.9    0.00 
 127   10:10   1.01   72.9    30    1.9   198     5.6   855.9    0.00 
 127   10:20   1.02   73.7    29    1.6   174     5.1   855.9    0.00 
 127   10:30   1.05   74.4    28    3.0    77     5.7   855.7    0.00 
 127   10:40   1.06   75.0    25    3.2   107     6.9   855.7    0.00 
 127   10:50   1.08   75.4    24    3.7    77     8.6   855.6    0.00 
 127   11:00   1.09   75.6    25    5.8    70     9.6   855.5    0.00 
 127   11:10   1.10   76.1    24    4.6    60     9.9   855.4    0.00 
 127   11:20   1.11   76.2    25    3.9    80     8.2   855.2    0.00 
 127   11:30   1.11   76.4    23    5.8    47    10.2   855.1    0.00 
 127   11:40   1.12   76.8    23    4.9    59    10.6   854.9    0.00 
 127   11:50   1.11   75.9    27    3.8   332     8.1   854.7    0.00 
 127   12:00   1.12   76.2    25    4.0    86    10.3   854.6    0.00 
 127   12:10   1.13   77.3    22    3.8    68    10.5   854.5    0.00 
 127   12:20   1.13   77.6    23    2.3   281     8.9   854.5    0.00 
 127   12:30   1.12   77.9    24    5.2   278    13.2   854.5    0.00 
 127   12:40   1.12   78.2    24    9.3   278    15.9   854.4    0.00 
 127   12:50   1.11   78.4    23    7.0   284    11.6   854.4    0.00 
 127   13:00   1.10   78.3    22    6.8   272    12.2   854.4    0.00 
 127   13:10   1.09   79.0    22   10.2   289    18.0   854.3    0.00 
 127   13:20   1.07   78.4    22   10.1   299    18.1   854.3    0.00 
 127   13:30   1.05   78.3    23   10.0   287    17.0   854.3    0.00 
 127   13:40   1.03   78.7    21    9.0   321    18.1   854.2    0.00 
 127   13:50   1.02   78.6    23   10.2   300    17.0   854.2    0.00 
 127   14:00   1.00   78.1    23    8.7   302    14.1   854.1    0.00 
 127   14:10   0.97   78.8    22   11.2   312    16.8   853.9    0.00 
 127   14:20   0.95   79.1    23   14.0   297    22.6   853.8    0.00 
 127   14:30   0.92   78.7    22   11.8   286    17.0   853.7    0.00 
 127   14:40   0.89   78.8    21   12.4   300    23.0   853.6    0.00 
 127   14:50   0.87   78.7    21   13.9   286    20.5   853.5    0.00 
 127   15:00   0.84   78.7    21   11.4   286    18.8   853.4    0.00 
 127   15:10   0.81   78.7    20   11.0   254    17.5   853.4    0.00 
 127   15:20   0.78   78.5    19   13.5   262    18.9   853.4    0.00 
 127   15:30   0.74   78.5    18   14.6   244    21.4   853.4    0.00 
 127   15:40   0.71   78.6    19   12.3   262    18.1   853.4    0.00 
 127   15:50   0.68   78.3    18   10.3   270    15.6   853.4    0.00 
 127   16:00   0.64   78.2    19   12.3   276    17.2   853.4    0.00 
 127   16:10   0.60   78.1    19   10.8   273    19.2   853.5    0.00 
 127   16:20   0.56   77.8    19    9.9   273    20.5   853.5    0.00 
 127   16:30   0.52   77.4    19   11.3   273    17.2   853.6    0.00 
 127   16:40   0.48   77.1    18   12.0   283    18.0   853.6    0.00 
 127   16:50   0.45   76.7    19   10.3   264    18.2   853.6    0.00 
 127   17:00   0.41   76.3    20    7.6   277    11.3   853.7    0.00 
 127   17:10   0.37   76.2    19    8.9   292    14.6   853.7    0.00 
 127   17:20   0.33   75.4    21    8.8   305    13.8   853.7    0.00 
 127   17:30   0.30   75.3    21    7.5   300    14.2   853.8    0.00 
 127   17:40   0.26   74.6    22    8.3   307    12.0   853.8    0.00 
 127   17:50   0.23   73.9    22    8.8   305    14.1   853.8    0.00 
 127   18:00   0.19   73.4    23    5.9   305    10.7   853.9    0.00 
 127   18:10   0.15   72.8    23    6.6   306     9.6   853.9    0.00 
 127   18:20   0.09   71.4    25    6.9   312    10.9   853.9    0.00 
 127   18:30   0.02   70.1    27    7.4   319    10.8   854.0    0.00 
 127   18:40   0.02   68.8    28    6.3   311     8.9   854.0    0.00 
 127   18:50   0.01   68.4    28    7.6   311    12.4   854.0    0.00 
 127   19:00   0.01   68.0    29    7.7   305    11.3   854.1    0.00 
 127   19:10   0.00   66.8    31    5.5   300     9.8   854.2    0.00 
 127   19:20   0.00   65.3    33    5.2   289     6.8   854.3    0.00 
 127   19:30   0.00   65.2    33    4.6   274     6.2   854.4    0.00 
 127   19:40   0.00   65.2    32    5.2   297     8.8   854.5    0.00 
 127   19:50   0.00   64.4    34    4.4   299     6.1   854.6    0.00 
 127   20:00   0.00   64.2    34    6.8   320    10.4   854.8    0.00 
 127   20:10   0.00   63.8    37    4.6   328     9.0   855.0    0.00 
 127   20:20   0.00   61.1    42    3.7   296     5.8   855.2    0.00 
 127   20:30   0.00   59.9    41    3.1   252     4.5   855.3    0.00 
 127   20:40   0.00   61.7    39    5.8   262    10.9   855.4    0.00 
 127   20:50   0.00   59.6    45    7.4   274    13.3   855.4    0.00 
 127   21:00   0.00   60.5    42   11.8   272    15.2   855.2    0.00 
 127   21:10   0.00   61.5    40   12.1   275    17.0   855.2    0.00 
 127   21:20   0.00   61.2    41    4.6   264    10.1   855.4    0.00 
 127   21:30   0.00   60.0    42    1.6   160     5.8   855.5    0.00 
 127   21:40   0.00   60.5    42    5.7   268     8.1   855.5    0.00 
 127   21:50   0.00   60.5    40    6.3   250    10.2   855.4    0.00 
 127   22:00   0.00   59.7    44    5.0   234    10.6   855.4    0.00 
 127   22:10   0.00   56.7    50    2.6   178     5.3   855.4    0.00 
 127   22:20   0.00   54.7    54    5.3   216     7.9   855.4    0.00 
 127   22:30   0.00   52.3    59    5.2   198     7.1   855.3    0.00 
 127   22:40   0.00   51.2    60    4.6   207     9.0   855.4    0.00 
 127   22:50   0.00   52.4    57    5.0   149     6.8   855.4    0.00 
 127   23:00   0.00   52.8    56    2.8   114     5.0   855.3    0.00 
 127   23:10   0.00   51.8    58    3.1   155     5.5   855.3    0.00 
 127   23:20   0.00   50.4    61    1.3    84     2.4   855.3    0.00 
 127   23:30   0.00   50.1    60    3.1   147     7.0   855.3    0.00 
 127   23:40   0.00   52.3    54    4.0   152     8.4   855.3    0.00 
 127   23:50   0.00   53.3    51    2.3   122     4.7   855.3    0.00 
 128    0:00   0.00   50.6    58    1.6    82     2.9   855.3    0.00 
 128    0:10   0.00   51.6    52    2.2   164     3.8   855.3    0.00 
 128    0:20   0.00   50.1    56    3.9   310     6.4   855.3    0.00 
 128    0:30   0.00   47.8    61    1.2    13     4.3   855.4    0.00 
 128    0:40   0.00   47.0    63    2.3   358     4.1   855.3    0.00 
 128    0:50   0.00   45.4    67    1.7   234     5.5   855.3    0.00 
 128    1:00   0.00   44.4    70    1.6   290     4.3   855.2    0.00 
 128    1:10   0.00   44.1    71    2.1    39     6.1   855.2    0.00 
 128    1:20   0.00   42.3    75    0.7   197     5.0   855.2    0.00 
 128    1:30   0.00   41.4    77    0.9   206     2.4   855.2    0.00 
 128    1:40   0.00   42.2    76    0.7   324     1.9   855.2    0.00 
 128    1:50   0.00   41.5    78    1.4   276     7.0   855.3    0.00 
 128    2:00   0.00   41.5    77    0.9   114     3.4   855.3    0.00 
 128    2:10   0.00   40.9    79    2.4   112     6.8   855.4    0.00 
 128    2:20   0.00   42.6    73    3.8   104     4.5   855.3    0.00 
 128    2:30   0.00   45.5    65    2.8   140     5.7   855.3    0.00 
 128    2:40   0.00   41.4    78    1.3   238     3.7   855.4    0.00 
 128    2:50   0.00   39.5    80    1.3   237     3.3   855.5    0.00 
 128    3:00   0.00   38.1    82    0.7    58     3.7   855.5    0.00 
 128    3:10   0.00   39.8    80    1.8    67     3.6   855.5    0.00 
 128    3:20   0.00   40.0    79    1.4   210     3.9   855.5    0.00 
 128    3:30   0.00   38.1    84    1.0   144     3.0   855.4    0.00 
 128    3:40   0.00   38.3    81    2.6   210     5.7   855.5    0.00 
 128    3:50   0.00   36.9    84    2.0   200     4.3   855.7    0.00 
 128    4:00   0.00   37.0    84    1.8   197     3.6   855.7    0.00 
 128    4:10   0.00   36.3    86    1.6   139     4.0   855.7    0.00 
 128    4:20   0.00   36.2    88    1.5   128     4.0   855.8    0.00 
 128    4:30   0.00   36.3    87    2.3   161     7.1   855.8    0.00 
 128    4:40   0.00   37.1    84    1.4   102     3.0   855.8    0.00 
 128    4:50   0.00   36.2    85    1.5    80     3.4   855.9    0.00 
 128    5:00   0.01   36.8    83    1.1   113     2.5   855.9    0.00 
 128    5:10   0.04   36.9    81    2.3   144     4.5   856.0    0.00 
 128    5:20   0.07   36.1    86    2.2   240     5.5   856.1    0.00 
 128    5:30   0.10   36.6    86    1.8   202     5.9   856.2    0.00 
 128    5:40   0.14   40.0    78    3.9    84     8.0   856.2    0.00 
 128    5:50   0.17   40.8    76    2.2    68     5.2   856.3    0.00 
 128    6:00   0.20   42.4    79    0.6   319     2.3   856.4    0.00 
 128    6:10   0.24   45.5    68    1.5   328     2.8   856.5    0.00 

Return to Smith Valley graphs page.


Western Regional Climate Center,wrcc@dri.edu